createdAt,value
2022-11-20T00:01:29.734Z,13.60
2022-11-20T00:03:59.192Z,12.48
2022-11-20T00:06:28.236Z,11.68
2022-11-20T00:08:58.280Z,12.35
2022-11-20T00:11:27.869Z,12.23
2022-11-20T00:13:58.834Z,13.57
2022-11-20T00:16:28.955Z,12.93
2022-11-20T00:18:55.958Z,12.38
2022-11-20T00:21:26.718Z,12.48
2022-11-20T00:23:56.687Z,11.52
2022-11-20T00:26:26.707Z,11.52
2022-11-20T00:28:58.192Z,10.98
2022-11-20T00:31:26.039Z,8.80
2022-11-20T00:33:53.575Z,10.32
2022-11-20T00:36:26.854Z,10.15
2022-11-20T00:38:55.559Z,9.57
2022-11-20T00:41:23.575Z,11.60
2022-11-20T00:43:51.981Z,11.00
2022-11-20T00:46:22.640Z,12.00
2022-11-20T00:48:49.887Z,10.55
2022-11-20T00:51:20.979Z,10.70
2022-11-20T00:53:48.713Z,9.23
2022-11-20T00:56:18.961Z,13.95
2022-11-20T00:58:48.916Z,11.30
2022-11-20T01:01:27.172Z,10.10
2022-11-20T01:03:57.149Z,11.00
2022-11-20T01:06:28.215Z,9.70
2022-11-20T01:09:00.173Z,10.52
2022-11-20T01:11:31.433Z,10.82
2022-11-20T01:14:00.380Z,11.68
2022-11-20T01:16:37.252Z,10.75
2022-11-20T01:19:08.441Z,11.30
2022-11-20T01:21:41.943Z,11.32
2022-11-20T01:24:13.801Z,11.57
2022-11-20T01:26:43.472Z,11.70
2022-11-20T01:29:24.423Z,12.07
2022-11-20T01:31:53.462Z,11.82
2022-11-20T01:34:23.355Z,6.40
2022-11-20T01:36:52.784Z,12.13
2022-11-20T01:39:25.998Z,3.88
2022-11-20T01:42:14.067Z,12.77
2022-11-20T01:44:58.389Z,12.20
2022-11-20T01:47:42.049Z,11.50
2022-11-20T01:50:29.944Z,13.07
2022-11-20T01:53:06.205Z,11.55
2022-11-20T01:55:40.859Z,11.52
2022-11-20T01:58:09.232Z,11.02
2022-11-20T02:00:36.342Z,11.40
2022-11-20T02:03:08.262Z,4.50
2022-11-20T02:06:02.347Z,6.82
2022-11-20T02:08:29.531Z,12.20
2022-11-20T02:10:56.543Z,11.70
2022-11-20T02:13:42.240Z,12.73
2022-11-20T02:16:24.919Z,12.07
2022-11-20T02:18:54.409Z,12.98
2022-11-20T02:22:10.096Z,10.98
2022-11-20T02:24:36.943Z,12.20
2022-11-20T02:27:10.881Z,12.35
2022-11-20T02:30:11.900Z,12.38
2022-11-20T02:32:40.748Z,11.32
2022-11-20T02:35:31.785Z,12.35
2022-11-20T02:38:03.473Z,10.70
2022-11-20T02:40:30.534Z,12.10
2022-11-20T02:42:57.976Z,13.18
2022-11-20T02:45:25.945Z,13.07
2022-11-20T02:47:53.586Z,11.45
2022-11-20T02:50:21.167Z,12.25
2022-11-20T02:52:47.970Z,11.95
2022-11-20T02:55:15.014Z,13.70
2022-11-20T02:57:41.885Z,12.45
2022-11-20T03:00:10.064Z,12.27
2022-11-20T03:02:36.965Z,11.40
2022-11-20T03:05:04.143Z,12.43
2022-11-20T03:07:30.906Z,11.52
2022-11-20T03:09:57.756Z,10.77
2022-11-20T03:12:24.568Z,11.82
2022-11-20T03:14:53.235Z,11.70
2022-11-20T03:17:20.726Z,12.73
2022-11-20T03:19:47.623Z,10.05
2022-11-20T03:22:14.666Z,11.27
2022-11-20T03:24:41.415Z,11.65
2022-11-20T03:27:08.188Z,13.88
2022-11-20T03:29:36.654Z,11.77
2022-11-20T03:32:03.512Z,11.60
2022-11-20T03:34:30.456Z,11.38
2022-11-20T03:36:57.224Z,11.05
2022-11-20T03:39:24.215Z,12.57
2022-11-20T03:41:51.126Z,12.85
2022-11-20T03:44:17.948Z,11.55
2022-11-20T03:46:44.676Z,14.18
2022-11-20T03:49:11.456Z,12.43
2022-11-20T03:51:38.298Z,11.88
2022-11-20T03:54:09.458Z,11.45
2022-11-20T03:56:39.170Z,11.05
2022-11-20T03:59:07.054Z,11.98
2022-11-20T04:01:38.327Z,12.85
2022-11-20T04:04:05.628Z,12.48
2022-11-20T04:06:38.012Z,12.50
2022-11-20T04:09:05.973Z,13.05
2022-11-20T04:11:37.297Z,11.43
2022-11-20T04:14:06.957Z,12.57
2022-11-20T04:16:37.105Z,12.60
2022-11-20T04:19:07.219Z,6.28
2022-11-20T04:21:34.295Z,6.10
2022-11-20T04:24:01.377Z,8.82
2022-11-20T04:26:30.215Z,5.00
2022-11-20T04:28:58.549Z,11.15
2022-11-20T04:31:31.832Z,5.78
2022-11-20T04:34:04.874Z,12.00
2022-11-20T04:36:33.356Z,11.45
2022-11-20T04:39:05.447Z,11.32
2022-11-20T04:41:36.796Z,11.98
2022-11-20T04:44:06.618Z,11.85
2022-11-20T04:46:42.198Z,12.70
2022-11-20T04:49:09.976Z,12.30
2022-11-20T04:51:36.824Z,12.77
2022-11-20T04:54:04.035Z,11.88
2022-11-20T04:56:31.209Z,13.18
2022-11-20T04:59:02.779Z,12.13
2022-11-20T05:01:29.922Z,12.25
2022-11-20T05:03:56.692Z,12.05
2022-11-20T05:06:23.885Z,11.85
2022-11-20T05:08:51.048Z,13.95
2022-11-20T05:11:21.646Z,12.75
2022-11-20T05:13:50.061Z,12.20
2022-11-20T05:16:23.756Z,12.60
2022-11-20T05:18:55.337Z,12.75
2022-11-20T05:21:23.308Z,12.43
2022-11-20T05:23:50.070Z,11.73
2022-11-20T05:26:22.842Z,13.10
2022-11-20T05:31:27.833Z,12.10
2022-11-20T05:33:58.021Z,12.75
2022-11-20T05:36:25.580Z,12.20
2022-11-20T05:38:55.500Z,13.98
2022-11-20T05:41:25.527Z,13.65
2022-11-20T05:43:52.866Z,13.27
2022-11-20T05:46:27.649Z,14.60
2022-11-20T05:48:55.765Z,14.52
2022-11-20T05:51:24.065Z,13.90
2022-11-20T05:53:51.002Z,14.60
2022-11-20T05:56:20.887Z,14.52
2022-11-20T05:58:48.772Z,13.93
2022-11-20T06:01:25.132Z,14.50
2022-11-20T06:03:53.455Z,14.63
2022-11-20T06:06:21.372Z,15.25
2022-11-20T06:08:49.336Z,13.32
2022-11-20T06:11:18.197Z,14.85
2022-11-20T06:13:46.366Z,14.60
2022-11-20T06:16:17.455Z,10.50
2022-11-20T06:18:44.272Z,13.88
2022-11-20T06:21:20.241Z,13.75
2022-11-20T06:23:48.098Z,14.70
2022-11-20T06:26:22.583Z,7.80
2022-11-20T06:28:50.408Z,13.02
2022-11-20T06:31:20.370Z,13.60
2022-11-20T06:33:48.454Z,13.70
2022-11-20T06:36:19.102Z,9.77
2022-11-20T06:38:45.949Z,11.30
2022-11-20T06:41:20.052Z,15.00
2022-11-20T06:43:47.604Z,15.55
2022-11-20T06:46:20.117Z,16.85
2022-11-20T06:48:49.872Z,14.68
2022-11-20T06:51:16.865Z,15.20
2022-11-20T06:53:43.618Z,14.90
2022-11-20T06:56:10.468Z,13.65
2022-11-20T06:58:37.998Z,13.93
2022-11-20T07:01:13.448Z,14.57
2022-11-20T07:03:41.034Z,14.77
2022-11-20T07:06:08.426Z,15.10
2022-11-20T07:08:35.789Z,14.60
2022-11-20T07:11:06.934Z,12.70
2022-11-20T07:13:34.169Z,12.73
2022-11-20T07:16:04.569Z,14.82
2022-11-20T07:18:31.844Z,13.73
2022-11-20T07:21:04.302Z,15.30
2022-11-20T07:23:31.085Z,14.20
2022-11-20T07:25:57.970Z,13.07
2022-11-20T07:28:24.716Z,14.52
2022-11-20T07:30:53.837Z,13.98
2022-11-20T07:33:21.665Z,13.95
2022-11-20T07:35:48.562Z,13.98
2022-11-20T07:38:15.489Z,13.98
2022-11-20T07:40:42.395Z,15.73
2022-11-20T07:43:09.359Z,14.95
2022-11-20T07:45:36.251Z,14.55
2022-11-20T07:48:03.389Z,14.77
2022-11-20T07:50:30.320Z,14.50
2022-11-20T07:53:07.254Z,14.45
2022-11-20T07:55:34.158Z,14.30
2022-11-20T07:58:01.160Z,14.82
2022-11-20T08:00:28.665Z,14.60
2022-11-20T08:02:55.803Z,13.13
2022-11-20T08:05:22.666Z,13.80
2022-11-20T08:07:49.879Z,14.70
2022-11-20T08:10:18.031Z,14.48
2022-11-20T08:13:09.241Z,15.75
2022-11-20T08:15:37.456Z,14.90
2022-11-20T08:18:30.685Z,14.80
2022-11-20T08:21:02.639Z,14.43
2022-11-20T08:23:29.490Z,15.93
2022-11-20T08:25:56.206Z,17.05
2022-11-20T08:28:22.981Z,17.58
2022-11-20T08:30:51.428Z,15.45
2022-11-20T08:33:19.477Z,15.93
2022-11-20T08:35:46.457Z,15.40
2022-11-20T08:38:13.217Z,15.60
2022-11-20T08:40:40.064Z,14.35
2022-11-20T08:43:06.958Z,16.10
2022-11-20T08:45:35.269Z,14.80
2022-11-20T08:48:04.436Z,16.60
2022-11-20T08:50:34.845Z,16.27
2022-11-20T08:53:07.756Z,16.00
2022-11-20T08:55:36.548Z,16.45
2022-11-20T08:58:07.853Z,16.13
2022-11-20T09:00:35.282Z,15.18
2022-11-20T09:03:02.864Z,15.00
2022-11-20T09:05:30.321Z,15.77
2022-11-20T09:08:00.776Z,16.00
2022-11-20T09:10:28.805Z,16.50
2022-11-20T09:12:56.561Z,15.23
2022-11-20T09:15:25.166Z,14.30
2022-11-20T09:18:05.378Z,16.30
2022-11-20T09:20:33.076Z,12.98
2022-11-20T09:22:59.799Z,16.30
2022-11-20T09:25:26.573Z,16.52
2022-11-20T09:27:57.777Z,15.35
2022-11-20T09:30:24.968Z,16.33
2022-11-20T09:32:52.242Z,18.58
2022-11-20T09:35:19.124Z,14.85
2022-11-20T09:37:47.014Z,14.90
2022-11-20T09:40:27.554Z,16.13
2022-11-20T09:43:16.022Z,16.17
2022-11-20T09:46:03.185Z,16.77
2022-11-20T09:49:04.064Z,15.95
2022-11-20T09:51:48.973Z,17.00
2022-11-20T09:54:19.519Z,16.55
2022-11-20T09:56:54.830Z,16.83
2022-11-20T09:59:44.455Z,18.17
2022-11-20T10:02:37.967Z,17.15
2022-11-20T10:05:19.966Z,18.55
2022-11-20T10:07:57.864Z,18.48
2022-11-20T10:10:59.816Z,15.98
2022-11-20T10:13:54.383Z,17.55
2022-11-20T10:16:49.930Z,17.80
2022-11-20T10:19:48.661Z,16.83
2022-11-20T10:22:54.080Z,15.88
2022-11-20T10:25:29.511Z,15.15
2022-11-20T10:28:35.887Z,13.93
2022-11-20T10:31:15.198Z,16.55
2022-11-20T10:34:11.069Z,14.55
2022-11-20T10:36:48.610Z,14.68
2022-11-20T10:39:36.337Z,16.70
2022-11-20T10:42:03.748Z,17.60
2022-11-20T10:44:53.763Z,16.55
2022-11-20T10:47:23.205Z,17.23
2022-11-20T10:49:55.619Z,16.67
2022-11-20T10:52:34.260Z,17.52
2022-11-20T10:55:33.678Z,17.17
2022-11-20T10:58:30.877Z,17.63
2022-11-20T11:01:25.102Z,17.55
2022-11-20T11:03:54.378Z,14.13
2022-11-20T11:06:30.723Z,12.95
2022-11-20T11:09:05.415Z,14.30
2022-11-20T11:11:34.854Z,16.58
2022-11-20T11:14:14.724Z,15.68
2022-11-20T11:16:56.697Z,16.83
2022-11-20T11:19:24.265Z,17.00
2022-11-20T11:21:56.238Z,12.82
2022-11-20T11:24:42.125Z,18.55
2022-11-20T11:27:18.498Z,17.23
2022-11-20T11:29:46.971Z,17.98
2022-11-20T11:32:21.726Z,17.80
2022-11-20T11:35:03.848Z,18.70
2022-11-20T11:37:40.680Z,18.98
2022-11-20T11:40:27.541Z,20.20
2022-11-20T11:43:00.703Z,18.40
2022-11-20T11:45:28.583Z,20.58
2022-11-20T11:48:01.301Z,20.00
2022-11-20T11:50:30.336Z,18.98
2022-11-20T11:53:22.091Z,17.33
2022-11-20T11:56:12.250Z,19.00
2022-11-20T11:58:51.057Z,18.15
2022-11-20T12:04:32.110Z,18.58
2022-11-20T12:07:44.346Z,18.67
2022-11-20T12:10:03.056Z,16.97
2022-11-20T12:12:41.587Z,17.70
2022-11-20T12:15:18.453Z,17.67
2022-11-20T12:17:45.231Z,19.08
2022-11-20T12:20:15.807Z,17.90
2022-11-20T12:23:29.512Z,20.63
2022-11-20T12:26:06.863Z,20.05
2022-11-20T12:28:39.276Z,14.00
2022-11-20T12:31:36.256Z,18.00
2022-11-20T12:34:16.648Z,12.68
2022-11-20T12:39:23.601Z,16.92
2022-11-20T12:42:15.173Z,13.00
2022-11-20T12:45:15.416Z,20.85
2022-11-20T12:48:41.052Z,16.75
2022-11-20T12:51:31.883Z,16.10
2022-11-20T12:54:35.590Z,8.93
2022-11-20T12:57:45.359Z,18.58
2022-11-20T13:00:22.568Z,16.40
2022-11-20T13:03:45.690Z,18.70
2022-11-20T13:06:18.539Z,15.95
2022-11-20T13:08:56.961Z,18.45
2022-11-20T13:11:45.643Z,20.92
2022-11-20T13:14:25.570Z,21.50
2022-11-20T13:17:07.093Z,21.27
2022-11-20T13:19:35.310Z,19.42
2022-11-20T13:22:02.243Z,21.00
2022-11-20T13:24:33.461Z,22.73
2022-11-20T13:27:03.127Z,21.80
2022-11-20T13:29:31.188Z,21.60
2022-11-20T13:32:22.198Z,16.15
2022-11-20T13:35:06.553Z,16.30
2022-11-20T13:37:40.258Z,22.63
2022-11-20T13:40:10.439Z,16.73
2022-11-20T13:42:45.916Z,21.15
2022-11-20T13:45:28.852Z,13.27
2022-11-20T13:47:58.449Z,20.08
2022-11-20T13:50:53.308Z,17.73
2022-11-20T13:53:48.220Z,17.27
2022-11-20T13:56:53.940Z,20.60
2022-11-20T13:59:44.907Z,16.30
2022-11-20T14:02:17.459Z,19.75
2022-11-20T14:04:52.095Z,20.27
2022-11-20T14:07:25.291Z,16.55
2022-11-20T14:09:57.622Z,15.73
2022-11-20T14:12:32.611Z,21.92
2022-11-20T14:15:00.608Z,16.67
2022-11-20T14:17:35.348Z,20.38
2022-11-20T14:20:07.345Z,19.60
2022-11-20T14:22:34.236Z,21.20
2022-11-20T14:25:13.155Z,15.65
2022-11-20T14:27:54.608Z,24.23
2022-11-20T14:30:29.388Z,18.02
2022-11-20T14:33:03.362Z,22.20
2022-11-20T14:35:36.784Z,21.55
2022-11-20T14:38:05.311Z,21.77
2022-11-20T14:40:37.243Z,20.17
2022-11-20T14:43:24.705Z,21.92
2022-11-20T14:46:04.890Z,22.10
2022-11-20T14:48:48.401Z,22.98
2022-11-20T14:51:32.732Z,19.08
2022-11-20T14:54:19.871Z,16.52
2022-11-20T14:57:04.752Z,20.80
2022-11-20T14:59:35.090Z,23.33
2022-11-20T15:02:11.254Z,17.13
2022-11-20T15:04:58.515Z,21.75
2022-11-20T15:07:46.409Z,20.00
2022-11-20T15:10:19.496Z,22.17
2022-11-20T15:13:13.055Z,22.88
2022-11-20T15:15:57.400Z,21.77
2022-11-20T15:18:29.331Z,21.67
2022-11-20T15:20:58.708Z,22.35
2022-11-20T15:23:28.355Z,20.23
2022-11-20T15:25:55.740Z,21.13
2022-11-20T15:28:43.789Z,21.23
2022-11-20T15:31:13.917Z,22.00
2022-11-20T15:33:41.144Z,21.50
2022-11-20T15:36:08.834Z,21.83
2022-11-20T15:38:36.437Z,22.02
2022-11-20T15:41:03.403Z,13.88
2022-11-20T15:43:30.153Z,20.45
2022-11-20T15:46:04.026Z,19.83
2022-11-20T15:48:38.013Z,20.45
2022-11-20T15:51:11.673Z,19.55
2022-11-20T15:53:41.149Z,19.20
2022-11-20T15:56:13.610Z,21.83
2022-11-20T16:01:12.985Z,15.27
2022-11-20T16:03:40.152Z,17.35
2022-11-20T16:06:07.022Z,18.52
2022-11-20T16:08:34.363Z,21.20
2022-11-20T16:11:01.165Z,21.08
2022-11-20T16:13:46.392Z,19.27
2022-11-20T16:16:23.915Z,20.25
2022-11-20T16:18:51.334Z,18.77
2022-11-20T16:21:18.545Z,20.00
2022-11-20T16:23:45.361Z,16.77
2022-11-20T16:26:21.639Z,17.95
2022-11-20T16:28:48.473Z,17.77
2022-11-20T16:31:19.353Z,19.13
2022-11-20T16:33:55.102Z,18.15
2022-11-20T16:36:26.444Z,17.70
2022-11-20T16:38:58.532Z,15.20
2022-11-20T16:41:28.029Z,22.10
2022-11-20T16:44:00.769Z,17.95
2022-11-20T16:46:31.173Z,14.60
2022-11-20T16:49:07.387Z,14.48
2022-11-20T16:51:37.456Z,17.85
2022-11-20T16:54:07.351Z,18.30
2022-11-20T16:56:34.375Z,20.73
2022-11-20T16:59:05.405Z,17.95
2022-11-20T17:01:32.733Z,20.15
2022-11-20T17:04:05.552Z,18.65
2022-11-20T17:06:39.112Z,16.27
2022-11-20T17:09:09.450Z,20.00
2022-11-20T17:11:37.338Z,16.13
2022-11-20T17:14:04.725Z,16.92
2022-11-20T17:16:31.701Z,16.65
2022-11-20T17:19:03.417Z,17.25
2022-11-20T17:21:33.210Z,14.52
2022-11-20T17:24:12.023Z,19.58
2022-11-20T17:29:14.810Z,15.30
2022-11-20T17:31:43.334Z,18.77
2022-11-20T17:34:15.673Z,16.33
2022-11-20T17:36:45.651Z,15.82
2022-11-20T17:39:17.346Z,16.77
2022-11-20T17:41:44.913Z,16.95
2022-11-20T17:44:12.968Z,17.52
2022-11-20T17:46:40.649Z,16.52
2022-11-20T17:49:07.592Z,15.85
2022-11-20T17:51:35.231Z,16.15
2022-11-20T17:54:07.444Z,16.08
2022-11-20T17:56:54.475Z,17.42
2022-11-20T17:59:21.676Z,16.27
2022-11-20T18:01:48.695Z,17.02
2022-11-20T18:04:16.676Z,15.82
2022-11-20T18:06:43.856Z,16.80
2022-11-20T18:09:10.736Z,15.20
2022-11-20T18:11:41.158Z,17.10
2022-11-20T18:14:26.509Z,20.75
2022-11-20T18:16:57.003Z,17.67
2022-11-20T18:19:32.132Z,18.42
2022-11-20T18:22:01.699Z,16.52
2022-11-20T18:24:29.100Z,14.45
2022-11-20T18:26:59.181Z,15.10
2022-11-20T18:29:27.109Z,12.77
2022-11-20T18:31:54.632Z,14.18
2022-11-20T18:34:21.867Z,11.10
2022-11-20T18:36:49.111Z,14.25
2022-11-20T18:39:17.096Z,13.05
2022-11-20T18:42:03.089Z,14.60
2022-11-20T18:44:50.931Z,14.70
2022-11-20T18:47:34.070Z,14.32
2022-11-20T18:50:02.112Z,14.43
2022-11-20T18:52:34.224Z,13.55
2022-11-20T18:55:04.146Z,14.48
2022-11-20T18:57:32.609Z,16.27
2022-11-20T19:00:03.527Z,11.93
2022-11-20T19:02:37.916Z,15.60
2022-11-20T19:05:08.845Z,14.98
2022-11-20T19:07:35.682Z,17.00
2022-11-20T19:10:04.235Z,12.68
2022-11-20T19:12:31.668Z,16.70
2022-11-20T19:14:58.523Z,13.85
2022-11-20T19:17:25.409Z,17.50
2022-11-20T19:19:54.849Z,16.67
2022-11-20T19:22:21.776Z,12.18
2022-11-20T19:24:49.305Z,14.93
2022-11-20T19:27:16.015Z,17.67
2022-11-20T19:29:42.816Z,14.77
2022-11-20T19:32:09.631Z,18.30
2022-11-20T19:34:36.357Z,15.45
2022-11-20T19:37:03.215Z,17.75
2022-11-20T19:39:30.000Z,15.38
2022-11-20T19:41:56.841Z,14.50
2022-11-20T19:44:23.660Z,17.67
2022-11-20T19:46:50.996Z,19.23
2022-11-20T19:49:18.112Z,18.05
2022-11-20T19:51:48.814Z,13.63
2022-11-20T19:54:16.983Z,18.67
2022-11-20T19:56:45.345Z,16.60
2022-11-20T19:59:13.020Z,16.23
2022-11-20T20:01:40.034Z,13.77
2022-11-20T20:04:07.291Z,13.52
2022-11-20T20:06:38.732Z,17.02
2022-11-20T20:09:12.210Z,16.35
2022-11-20T20:11:40.727Z,17.65
2022-11-20T20:14:13.768Z,18.80
2022-11-20T20:16:41.661Z,17.90
2022-11-20T20:19:12.104Z,17.27
2022-11-20T20:21:38.930Z,17.80
2022-11-20T20:24:06.406Z,18.77
2022-11-20T20:26:33.825Z,16.10
2022-11-20T20:29:04.007Z,17.25
2022-11-20T20:31:33.368Z,18.27
2022-11-20T20:34:01.436Z,14.63
2022-11-20T20:36:28.195Z,18.55
2022-11-20T20:38:59.562Z,20.85
2022-11-20T20:41:26.675Z,19.63
2022-11-20T20:44:12.607Z,13.35
2022-11-20T20:46:40.955Z,17.50
2022-11-20T20:49:09.059Z,18.70
2022-11-20T20:51:36.651Z,18.65
2022-11-20T20:54:04.705Z,20.55
2022-11-20T20:56:32.045Z,19.15
2022-11-20T20:58:58.877Z,20.77
2022-11-20T21:01:28.719Z,19.58
2022-11-20T21:03:57.355Z,21.23
2022-11-20T21:06:25.472Z,19.92
2022-11-20T21:08:52.477Z,20.73
2022-11-20T21:11:21.109Z,21.40
2022-11-20T21:13:49.394Z,19.85
2022-11-20T21:16:20.640Z,17.63
2022-11-20T21:18:48.013Z,18.90
2022-11-20T21:21:35.761Z,21.10
2022-11-20T21:24:03.807Z,19.65
2022-11-20T21:26:30.573Z,21.42
2022-11-20T21:28:58.060Z,23.25
2022-11-20T21:31:27.073Z,21.48
2022-11-20T21:33:56.347Z,23.17
2022-11-20T21:36:27.825Z,22.17
2022-11-20T21:38:57.086Z,22.80
2022-11-20T21:41:27.237Z,21.77
2022-11-20T21:44:29.207Z,23.58
2022-11-20T21:46:45.661Z,23.25
2022-11-20T21:49:13.118Z,22.83
2022-11-20T21:51:40.463Z,22.10
2022-11-20T21:54:07.380Z,23.33
2022-11-20T21:56:34.134Z,23.75
2022-11-20T21:59:00.941Z,23.67
2022-11-20T22:01:31.137Z,23.65
2022-11-20T22:04:01.614Z,22.65
2022-11-20T22:06:34.362Z,22.67
2022-11-20T22:09:03.388Z,22.13
2022-11-20T22:11:31.017Z,24.20
2022-11-20T22:14:17.299Z,23.38
2022-11-20T22:16:44.100Z,23.80
2022-11-20T22:19:11.069Z,24.30
2022-11-20T22:21:40.416Z,24.58
2022-11-20T22:24:08.407Z,23.48
2022-11-20T22:26:40.350Z,22.95
2022-11-20T22:31:35.245Z,23.00
2022-11-20T22:34:03.203Z,24.70
2022-11-20T22:36:31.800Z,24.95
2022-11-20T22:39:01.940Z,24.08
2022-11-20T22:41:29.780Z,19.17
2022-11-20T22:44:03.273Z,21.85
2022-11-20T22:46:34.703Z,22.83
2022-11-20T22:49:05.531Z,22.50
2022-11-20T22:51:36.071Z,22.88
2022-11-20T22:54:03.839Z,23.08
2022-11-20T22:56:31.390Z,23.33
2022-11-20T22:58:58.570Z,23.05
2022-11-20T23:01:30.505Z,19.23
2022-11-20T23:04:10.728Z,22.50
2022-11-20T23:06:38.002Z,23.75
2022-11-20T23:09:07.443Z,23.60
2022-11-20T23:11:35.744Z,22.25
2022-11-20T23:14:13.217Z,22.55
2022-11-20T23:16:40.291Z,21.83
2022-11-20T23:19:11.263Z,22.65
2022-11-20T23:21:41.376Z,24.00
2022-11-20T23:24:09.668Z,23.33
2022-11-20T23:26:39.777Z,25.05
2022-11-20T23:29:07.265Z,26.00
2022-11-20T23:31:35.949Z,25.00
2022-11-20T23:34:03.357Z,23.83
2022-11-20T23:36:30.165Z,25.15
2022-11-20T23:38:57.115Z,24.10
2022-11-20T23:41:24.227Z,21.95
2022-11-20T23:43:51.030Z,24.35
2022-11-20T23:46:17.812Z,24.45
2022-11-20T23:48:45.613Z,23.80
2022-11-20T23:51:13.490Z,23.25
2022-11-20T23:53:40.341Z,24.67
2022-11-20T23:56:07.423Z,26.00
2022-11-20T23:58:37.845Z,23.25
